Time;durP1;ratioP1;P1;durP2;ratioP2;P2;SDS_P1;SDS_P2;PMS_P1;PMS_P2;Temp;Humidity;BMP_temperature;BMP_pressure;BME280_temperature;BME280_humidity;BME280_pressure;Samples;Min_cycle;Max_cycle;Signal;HPM_P1;HPM_P2
2024/01/11 00:02:05;;;;;;;;;;;2.80;99.90;;;;;;5066212;28;19928;-60
2024/01/11 00:04:32;;;;;;;;;;;2.80;99.90;;;;;;5050010;28;19928;-68
2024/01/11 00:06:59;;;;;;;;;;;2.80;99.90;;;;;;5051999;28;19935;-64
2024/01/11 00:09:26;;;;;;;;;;;2.70;99.90;;;;;;5052599;28;19928;-65
2024/01/11 00:11:53;;;;;;;;;;;2.70;99.90;;;;;;5050544;28;19933;-62
2024/01/11 00:14:20;;;;;;;;;;;2.80;99.90;;;;;;5050932;28;19924;-61
2024/01/11 00:16:47;;;;;;;;;;;2.80;99.90;;;;;;5047385;28;19932;-64
2024/01/11 00:19:13;;;;;;;;;;;2.80;99.90;;;;;;5048043;28;20306;-67
2024/01/11 00:21:40;;;;;;;;;;;2.70;99.90;;;;;;5052147;28;19964;-60
2024/01/11 00:24:08;;;;;;;;;;;2.70;99.90;;;;;;5047665;28;19946;-61
2024/01/11 00:26:36;;;;;;;;;;;2.70;99.90;;;;;;5051900;28;19939;-67
2024/01/11 00:29:03;;;;;;;;;;;2.70;99.90;;;;;;5057132;28;19956;-60
2024/01/11 00:31:30;;;;;;;;;;;2.70;99.90;;;;;;5051038;28;19931;-61
2024/01/11 00:33:56;;;;;;;;;;;2.60;99.90;;;;;;5049353;28;19925;-61
2024/01/11 00:36:23;;;;;;;;;;;2.60;99.90;;;;;;5050339;28;20381;-65
2024/01/11 00:38:50;;;;;;;;;;;2.60;99.90;;;;;;5047838;28;20002;-61
2024/01/11 00:41:17;;;;;;;;;;;2.60;99.90;;;;;;5058431;28;19987;-63
2024/01/11 00:43:44;;;;;;;;;;;2.70;99.90;;;;;;5045044;28;20004;-60
2024/01/11 00:46:11;;;;;;;;;;;2.60;99.90;;;;;;5053567;28;19932;-70
2024/01/11 00:48:38;;;;;;;;;;;2.60;99.90;;;;;;5047270;28;19974;-63
2024/01/11 00:51:05;;;;;;;;;;;2.60;99.90;;;;;;5040173;28;19928;-63
2024/01/11 00:53:33;;;;;;;;;;;2.60;99.90;;;;;;5021639;28;19932;-65
2024/01/11 00:56:00;;;;;;;;;;;2.60;99.90;;;;;;5051689;28;19928;-62
2024/01/11 00:58:27;;;;;;;;;;;2.60;99.90;;;;;;5048546;28;19933;-62
2024/01/11 01:00:54;;;;;;;;;;;2.60;99.90;;;;;;5048511;28;19925;-63
2024/01/11 01:03:21;;;;;;;;;;;2.60;99.90;;;;;;5046536;28;19929;-60
2024/01/11 01:05:48;;;;;;;;;;;2.60;99.90;;;;;;5048479;28;19968;-60
2024/01/11 01:08:15;;;;;;;;;;;2.60;99.90;;;;;;5058485;28;20297;-63
2024/01/11 01:10:42;;;;;;;;;;;2.60;99.90;;;;;;5057083;28;19944;-63
2024/01/11 01:13:08;;;;;;;;;;;2.70;99.90;;;;;;5051095;28;19947;-61
2024/01/11 01:15:35;;;;;;;;;;;2.70;99.90;;;;;;5049634;28;19925;-60
2024/01/11 01:18:02;;;;;;;;;;;2.70;99.90;;;;;;5051442;28;19936;-60
2024/01/11 01:20:29;;;;;;;;;;;2.70;99.90;;;;;;5051277;28;19947;-66
2024/01/11 01:22:56;;;;;;;;;;;2.70;99.90;;;;;;5049046;28;19925;-63
2024/01/11 01:25:23;;;;;;;;;;;2.70;99.90;;;;;;5046993;28;19935;-65
2024/01/11 01:27:50;;;;;;;;;;;2.80;99.90;;;;;;5050748;28;19952;-64
2024/01/11 01:30:17;;;;;;;;;;;2.80;99.90;;;;;;5047341;28;19925;-67
2024/01/11 01:32:43;;;;;;;;;;;2.80;99.90;;;;;;5042363;28;19928;-63
2024/01/11 01:35:10;;;;;;;;;;;2.80;99.90;;;;;;5048150;28;20510;-60
2024/01/11 01:37:37;;;;;;;;;;;2.80;99.90;;;;;;5049227;28;20294;-61
2024/01/11 01:40:05;;;;;;;;;;;2.80;99.90;;;;;;5050176;28;20469;-61
2024/01/11 01:42:32;;;;;;;;;;;2.80;99.90;;;;;;5047931;28;19924;-66
2024/01/11 01:44:59;;;;;;;;;;;2.80;99.90;;;;;;5045707;28;19970;-67
2024/01/11 01:47:26;;;;;;;;;;;2.80;99.90;;;;;;5048618;28;19931;-63
2024/01/11 01:49:54;;;;;;;;;;;2.80;99.90;;;;;;5047037;28;19929;-63
2024/01/11 01:52:21;;;;;;;;;;;2.80;99.90;;;;;;5056941;28;19924;-61
2024/01/11 01:54:49;;;;;;;;;;;2.80;99.90;;;;;;5035542;28;19928;-59
2024/01/11 01:57:17;;;;;;;;;;;2.80;99.90;;;;;;5050655;28;20028;-64
2024/01/11 01:59:45;;;;;;;;;;;2.80;99.90;;;;;;5069451;28;19972;-61
2024/01/11 02:02:12;;;;;;;;;;;2.90;99.90;;;;;;5053008;28;20389;-61
2024/01/11 02:04:39;;;;;;;;;;;2.80;99.90;;;;;;5048948;28;20023;-61
2024/01/11 02:07:06;;;;;;;;;;;2.80;99.90;;;;;;5047103;28;19925;-66
2024/01/11 02:09:33;;;;;;;;;;;2.80;99.90;;;;;;5047401;28;20032;-63
2024/01/11 02:12:00;;;;;;;;;;;2.90;99.90;;;;;;5047533;28;19933;-61
2024/01/11 02:14:27;;;;;;;;;;;2.90;99.90;;;;;;5046177;28;19971;-63
2024/01/11 02:16:54;;;;;;;;;;;2.90;99.90;;;;;;5050473;28;19939;-64
2024/01/11 02:19:21;;;;;;;;;;;2.90;99.90;;;;;;5046634;28;19925;-60
2024/01/11 02:21:49;;;;;;;;;;;2.90;99.90;;;;;;5053186;28;20872;-64
2024/01/11 02:24:17;;;;;;;;;;;2.90;99.90;;;;;;5051289;28;19932;-60
2024/01/11 02:27:00;;;;;;;;;;;3.00;99.90;;;;;;5053915;28;19958;-63
2024/01/11 02:29:27;;;;;;;;;;;2.90;99.90;;;;;;5051516;28;19928;-62
2024/01/11 02:31:58;;;;;;;;;;;3.00;99.90;;;;;;5056501;28;19994;-65
2024/01/11 02:34:26;;;;;;;;;;;3.00;99.90;;;;;;5051643;28;19932;-64
2024/01/11 02:36:56;;;;;;;;;;;3.00;99.90;;;;;;5048939;28;20280;-61
2024/01/11 02:39:24;;;;;;;;;;;3.00;99.90;;;;;;5051274;28;19929;-61
2024/01/11 02:41:52;;;;;;;;;;;3.00;99.90;;;;;;5057687;28;19970;-59
2024/01/11 02:44:19;;;;;;;;;;;3.00;99.90;;;;;;5054061;28;19929;-61
2024/01/11 02:46:45;;;;;;;;;;;2.90;99.90;;;;;;5049370;28;19925;-64
2024/01/11 02:49:12;;;;;;;;;;;2.90;99.90;;;;;;5051894;28;19925;-63
2024/01/11 02:51:39;;;;;;;;;;;2.90;99.90;;;;;;5055240;28;19935;-61
2024/01/11 02:54:06;;;;;;;;;;;2.90;99.90;;;;;;5053089;28;19933;-60
2024/01/11 02:56:33;;;;;;;;;;;2.90;99.90;;;;;;5047737;28;20579;-64
2024/01/11 02:59:00;;;;;;;;;;;2.80;99.90;;;;;;5051221;28;19925;-65
2024/01/11 03:01:27;;;;;;;;;;;2.80;99.90;;;;;;5048117;28;20035;-61
2024/01/11 03:03:54;;;;;;;;;;;2.80;99.90;;;;;;5050868;28;20002;-62
2024/01/11 03:06:22;;;;;;;;;;;2.80;99.90;;;;;;5046454;28;19933;-66
2024/01/11 03:08:49;;;;;;;;;;;2.80;99.90;;;;;;5044802;28;19925;-59
2024/01/11 03:11:16;;;;;;;;;;;2.80;99.90;;;;;;5046703;28;19933;-64
2024/01/11 03:13:43;;;;;;;;;;;2.80;99.90;;;;;;5053088;28;19932;-64
2024/01/11 03:16:10;;;;;;;;;;;2.80;99.90;;;;;;5054907;28;20247;-60
2024/01/11 03:18:37;;;;;;;;;;;2.80;99.90;;;;;;5048944;28;20600;-66
2024/01/11 03:21:04;;;;;;;;;;;2.80;99.90;;;;;;5055222;28;19956;-61
2024/01/11 03:23:31;;;;;;;;;;;2.80;99.90;;;;;;5050012;28;20031;-63
2024/01/11 03:25:58;;;;;;;;;;;2.90;99.90;;;;;;5048091;28;19963;-64
2024/01/11 03:28:25;;;;;;;;;;;2.90;99.90;;;;;;5058954;28;19928;-63
2024/01/11 03:30:52;;;;;;;;;;;2.90;99.90;;;;;;5051514;28;19933;-61
2024/01/11 03:33:19;;;;;;;;;;;2.90;99.90;;;;;;5055948;28;19924;-63
2024/01/11 03:35:47;;;;;;;;;;;2.90;99.90;;;;;;5050769;28;19954;-60
2024/01/11 03:38:14;;;;;;;;;;;2.90;99.90;;;;;;5050923;28;20035;-66
2024/01/11 03:40:40;;;;;;;;;;;2.90;99.90;;;;;;5054943;28;19936;-60
2024/01/11 03:43:07;;;;;;;;;;;2.90;99.90;;;;;;5049315;28;20043;-62
2024/01/11 03:45:34;;;;;;;;;;;2.90;99.90;;;;;;5050784;28;19998;-66
2024/01/11 03:48:01;;;;;;;;;;;2.90;99.90;;;;;;5047476;28;19936;-61
2024/01/11 03:50:28;;;;;;;;;;;2.90;99.90;;;;;;5059259;28;20019;-60
2024/01/11 03:52:55;;;;;;;;;;;2.90;99.90;;;;;;5053699;28;20023;-67
2024/01/11 03:55:22;;;;;;;;;;;3.00;99.90;;;;;;5051828;28;20391;-60
2024/01/11 03:57:48;;;;;;;;;;;3.00;99.90;;;;;;5053058;28;19936;-60
2024/01/11 04:00:15;;;;;;;;;;;3.00;99.90;;;;;;5047131;28;19975;-66
2024/01/11 04:02:42;;;;;;;;;;;3.00;99.90;;;;;;5050308;28;19981;-61
2024/01/11 04:05:09;;;;;;;;;;;3.00;99.90;;;;;;5045886;28;20276;-61
2024/01/11 04:07:36;;;;;;;;;;;3.10;99.90;;;;;;5050208;28;19925;-65
2024/01/11 04:10:03;;;;;;;;;;;3.00;99.90;;;;;;5046471;28;20437;-71
2024/01/11 04:12:30;;;;;;;;;;;3.00;99.90;;;;;;5051532;28;20511;-62
2024/01/11 04:14:57;;;;;;;;;;;3.00;99.90;;;;;;5044864;28;20343;-61
2024/01/11 04:17:24;;;;;;;;;;;3.00;99.90;;;;;;5057057;28;20602;-65
2024/01/11 04:19:51;;;;;;;;;;;3.00;99.90;;;;;;5056467;28;20392;-62
2024/01/11 04:22:18;;;;;;;;;;;3.00;99.90;;;;;;5051093;28;19975;-63
2024/01/11 04:24:44;;;;;;;;;;;3.10;99.90;;;;;;5053012;28;19951;-59
2024/01/11 04:27:11;;;;;;;;;;;3.10;99.90;;;;;;5049343;28;19928;-60
2024/01/11 04:29:38;;;;;;;;;;;3.10;99.90;;;;;;5046841;28;19929;-64
2024/01/11 04:32:05;;;;;;;;;;;3.10;99.90;;;;;;5051399;28;19929;-63
2024/01/11 04:34:32;;;;;;;;;;;3.20;99.90;;;;;;5051332;28;19934;-66
2024/01/11 04:36:59;;;;;;;;;;;3.20;99.90;;;;;;5049695;28;20433;-59
2024/01/11 04:39:26;;;;;;;;;;;3.20;99.90;;;;;;5050110;28;19929;-59
2024/01/11 04:41:52;;;;;;;;;;;3.20;99.90;;;;;;5050795;28;20027;-62
2024/01/11 04:44:19;;;;;;;;;;;3.30;99.90;;;;;;5049132;28;19929;-62
2024/01/11 04:46:46;;;;;;;;;;;3.40;99.90;;;;;;5045612;28;19924;-60
2024/01/11 04:49:13;;;;;;;;;;;3.40;99.90;;;;;;5047593;28;19967;-63
2024/01/11 04:51:40;;;;;;;;;;;3.40;99.90;;;;;;5046494;28;19931;-64
2024/01/11 04:54:06;;;;;;;;;;;3.40;99.90;;;;;;5051675;28;20032;-61
2024/01/11 04:56:33;;;;;;;;;;;3.40;99.90;;;;;;5045570;28;20008;-67
2024/01/11 04:59:00;;;;;;;;;;;3.30;99.90;;;;;;5049936;28;20019;-69
2024/01/11 05:01:27;;;;;;;;;;;3.40;99.90;;;;;;5044524;28;20390;-60
2024/01/11 05:03:54;;;;;;;;;;;3.30;99.90;;;;;;5053037;28;19929;-62
2024/01/11 05:06:21;;;;;;;;;;;3.30;99.90;;;;;;5052514;28;19978;-66
2024/01/11 05:08:52;;;;;;;;;;;3.40;99.90;;;;;;5045869;28;19929;-61
2024/01/11 05:11:19;;;;;;;;;;;3.40;99.90;;;;;;5042759;28;19964;-64
2024/01/11 05:13:47;;;;;;;;;;;3.40;99.90;;;;;;5051136;28;19929;-64
2024/01/11 05:16:25;;;;;;;;;;;3.30;99.90;;;;;;5044810;28;20378;-61
2024/01/11 05:18:52;;;;;;;;;;;3.30;99.90;;;;;;5043401;28;19947;-59
2024/01/11 05:21:20;;;;;;;;;;;3.30;99.90;;;;;;5043732;28;19931;-63
2024/01/11 05:23:47;;;;;;;;;;;3.40;99.90;;;;;;5045589;28;19936;-60
2024/01/11 05:26:15;;;;;;;;;;;3.40;99.90;;;;;;5048266;28;19960;-59
2024/01/11 05:28:42;;;;;;;;;;;3.40;99.90;;;;;;5049698;28;19932;-62
2024/01/11 05:31:13;;;;;;;;;;;3.50;99.90;;;;;;5043434;28;19968;-63
2024/01/11 05:33:40;;;;;;;;;;;3.50;99.90;;;;;;5048962;28;20454;-63
2024/01/11 05:36:08;;;;;;;;;;;3.50;99.90;;;;;;5053167;28;19979;-62
2024/01/11 05:38:35;;;;;;;;;;;3.50;99.90;;;;;;5053028;28;19935;-62
2024/01/11 05:41:02;;;;;;;;;;;3.50;99.90;;;;;;5053030;28;19959;-64
2024/01/11 05:43:29;;;;;;;;;;;3.60;99.90;;;;;;5051195;28;19932;-63
2024/01/11 05:45:56;;;;;;;;;;;3.60;99.90;;;;;;5047048;28;19956;-65
2024/01/11 05:48:22;;;;;;;;;;;3.60;99.90;;;;;;5050764;28;19978;-61
2024/01/11 05:50:50;;;;;;;;;;;3.60;99.90;;;;;;5053732;28;20023;-64
2024/01/11 05:53:20;;;;;;;;;;;3.70;99.90;;;;;;5050926;28;19928;-62
2024/01/11 05:55:48;;;;;;;;;;;3.60;99.90;;;;;;5050340;28;19968;-62
2024/01/11 05:58:16;;;;;;;;;;;3.60;99.90;;;;;;5054380;28;19964;-65
2024/01/11 06:00:43;;;;;;;;;;;3.60;99.90;;;;;;5056861;28;20391;-63
2024/01/11 06:03:11;;;;;;;;;;;3.60;99.90;;;;;;5046069;28;19943;-64
2024/01/11 06:05:39;;;;;;;;;;;3.60;99.90;;;;;;5045606;28;19928;-63
2024/01/11 06:08:06;;;;;;;;;;;3.60;99.90;;;;;;5042590;28;19987;-65
2024/01/11 06:10:33;;;;;;;;;;;3.60;99.90;;;;;;5043294;28;20015;-68
2024/01/11 06:13:00;;;;;;;;;;;3.60;99.90;;;;;;5050521;28;20023;-61
2024/01/11 06:15:27;;;;;;;;;;;3.60;99.90;;;;;;5050260;28;19932;-66
2024/01/11 06:17:54;;;;;;;;;;;3.60;99.90;;;;;;5050179;28;20387;-62
2024/01/11 06:20:21;;;;;;;;;;;3.60;99.90;;;;;;5047768;28;19932;-61
2024/01/11 06:22:48;;;;;;;;;;;3.60;99.90;;;;;;5049569;28;19959;-63
2024/01/11 06:25:15;;;;;;;;;;;3.60;99.90;;;;;;5051862;28;19928;-62
2024/01/11 06:27:43;;;;;;;;;;;3.50;99.90;;;;;;5047733;28;20515;-68
2024/01/11 06:30:11;;;;;;;;;;;3.50;99.90;;;;;;5049245;28;19960;-64
2024/01/11 06:32:37;;;;;;;;;;;3.50;99.90;;;;;;5046858;28;19938;-62
2024/01/11 06:35:05;;;;;;;;;;;3.50;99.90;;;;;;5047600;28;19925;-67
2024/01/11 06:37:32;;;;;;;;;;;3.50;99.90;;;;;;5047533;28;19962;-63
2024/01/11 06:39:59;;;;;;;;;;;3.50;99.90;;;;;;5048335;28;19932;-63
2024/01/11 06:42:26;;;;;;;;;;;3.50;99.90;;;;;;5052508;28;19933;-70
2024/01/11 06:44:52;;;;;;;;;;;3.40;99.90;;;;;;5056085;28;19924;-59
2024/01/11 06:47:19;;;;;;;;;;;3.50;99.90;;;;;;5051787;28;20433;-63
2024/01/11 06:49:46;;;;;;;;;;;3.50;99.90;;;;;;5018709;28;19968;-73
2024/01/11 06:52:13;;;;;;;;;;;3.50;99.90;;;;;;5020339;28;19932;-74
2024/01/11 06:54:40;;;;;;;;;;;3.50;99.90;;;;;;5018598;28;19947;-72
2024/01/11 06:57:07;;;;;;;;;;;3.50;99.90;;;;;;5036985;28;20011;-74
2024/01/11 06:59:34;;;;;;;;;;;3.50;99.90;;;;;;5018825;28;19986;-72
2024/01/11 07:02:01;;;;;;;;;;;3.50;99.90;;;;;;5044290;28;19940;-69
2024/01/11 07:04:27;;;;;;;;;;;3.50;99.90;;;;;;5055555;28;20949;-60
2024/01/11 07:06:58;;;;;;;;;;;3.50;99.90;;;;;;5055550;28;20294;-63
2024/01/11 07:09:25;;;;;;;;;;;3.50;99.90;;;;;;5059707;28;20007;-65
2024/01/11 07:11:52;;;;;;;;;;;3.50;99.90;;;;;;5050082;28;19928;-61
2024/01/11 07:14:19;;;;;;;;;;;3.50;99.90;;;;;;5053431;28;20464;-65
2024/01/11 07:16:46;;;;;;;;;;;3.50;99.90;;;;;;5051639;28;19929;-66
2024/01/11 07:19:12;;;;;;;;;;;3.50;99.90;;;;;;5052305;28;19968;-59
2024/01/11 07:21:39;;;;;;;;;;;3.50;99.90;;;;;;5054230;28;19925;-61
2024/01/11 07:24:06;;;;;;;;;;;3.50;99.90;;;;;;5058976;28;19952;-67
2024/01/11 07:26:33;;;;;;;;;;;3.50;99.90;;;;;;5056890;28;19924;-61
2024/01/11 07:29:01;;;;;;;;;;;3.40;99.90;;;;;;5047928;28;19933;-65
2024/01/11 07:31:28;;;;;;;;;;;3.50;99.90;;;;;;5057073;28;20031;-63
2024/01/11 07:33:54;;;;;;;;;;;3.50;99.90;;;;;;5053904;28;20005;-62
2024/01/11 07:36:21;;;;;;;;;;;3.50;99.90;;;;;;5054693;28;19929;-63
2024/01/11 07:38:48;;;;;;;;;;;3.50;99.90;;;;;;5050661;28;19951;-63
2024/01/11 07:41:15;;;;;;;;;;;3.50;99.90;;;;;;5051205;28;20019;-64
2024/01/11 07:43:43;;;;;;;;;;;3.50;99.90;;;;;;5047852;28;19925;-63
2024/01/11 07:46:20;;;;;;;;;;;3.50;99.90;;;;;;5049744;28;19971;-62
2024/01/11 07:49:02;;;;;;;;;;;3.50;99.90;;;;;;5049540;28;19931;-63
2024/01/11 07:51:29;;;;;;;;;;;3.50;99.90;;;;;;5050904;28;20302;-69
2024/01/11 07:53:56;;;;;;;;;;;3.40;99.90;;;;;;5049694;28;19929;-63
2024/01/11 07:56:23;;;;;;;;;;;3.40;99.90;;;;;;5054498;28;20032;-68
2024/01/11 07:58:50;;;;;;;;;;;3.40;99.90;;;;;;5053464;28;19932;-67
2024/01/11 08:01:16;;;;;;;;;;;3.40;99.90;;;;;;5055899;28;20575;-62
2024/01/11 08:03:47;;;;;;;;;;;3.40;99.90;;;;;;5051702;28;20040;-61
2024/01/11 08:06:14;;;;;;;;;;;3.40;99.90;;;;;;5035444;28;19929;-61
2024/01/11 08:08:41;;;;;;;;;;;3.40;99.90;;;;;;5056898;28;19931;-60
2024/01/11 08:11:08;;;;;;;;;;;3.40;99.90;;;;;;5049943;28;20291;-63
2024/01/11 08:13:37;;;;;;;;;;;3.40;99.90;;;;;;5048688;28;19933;-63
2024/01/11 08:16:07;;;;;;;;;;;3.40;99.90;;;;;;5052849;28;19925;-68
2024/01/11 08:18:34;;;;;;;;;;;3.40;99.90;;;;;;5051689;28;19935;-66
2024/01/11 08:21:01;;;;;;;;;;;3.40;99.90;;;;;;5052042;28;19952;-61
2024/01/11 08:23:27;;;;;;;;;;;3.40;99.90;;;;;;5050868;28;20029;-61
2024/01/11 08:25:54;;;;;;;;;;;3.40;99.90;;;;;;5047501;28;19924;-60
2024/01/11 08:28:22;;;;;;;;;;;3.40;99.90;;;;;;5044397;28;20386;-63
2024/01/11 08:30:49;;;;;;;;;;;3.50;99.90;;;;;;5047064;28;19925;-60
2024/01/11 08:33:16;;;;;;;;;;;3.40;99.90;;;;;;5046141;28;20035;-63
2024/01/11 08:35:43;;;;;;;;;;;3.40;99.90;;;;;;5054176;28;19978;-61
2024/01/11 08:38:10;;;;;;;;;;;3.40;99.90;;;;;;5048886;28;19964;-63
2024/01/11 08:40:37;;;;;;;;;;;3.40;99.90;;;;;;5049618;28;19971;-63
2024/01/11 08:43:06;;;;;;;;;;;3.40;99.90;;;;;;5049483;28;19932;-64
2024/01/11 08:45:33;;;;;;;;;;;3.40;99.90;;;;;;5050844;28;19951;-60
2024/01/11 08:48:00;;;;;;;;;;;3.40;99.90;;;;;;5047702;28;19937;-59
2024/01/11 08:50:27;;;;;;;;;;;3.40;99.90;;;;;;5048120;28;19950;-60
2024/01/11 08:52:55;;;;;;;;;;;3.40;99.90;;;;;;5051956;28;19955;-63
2024/01/11 08:55:23;;;;;;;;;;;3.40;99.90;;;;;;5057408;28;19924;-62
2024/01/11 08:57:50;;;;;;;;;;;3.40;99.90;;;;;;5058762;28;19946;-63
2024/01/11 09:00:17;;;;;;;;;;;3.40;99.90;;;;;;5055690;28;19935;-64
2024/01/11 09:02:45;;;;;;;;;;;3.40;99.90;;;;;;5054999;28;19936;-62
2024/01/11 09:05:16;;;;;;;;;;;3.40;99.90;;;;;;5051559;28;19982;-60
2024/01/11 09:07:43;;;;;;;;;;;3.40;99.90;;;;;;5048572;28;19924;-65
2024/01/11 09:10:11;;;;;;;;;;;3.40;99.90;;;;;;5047261;28;19929;-62
2024/01/11 09:12:38;;;;;;;;;;;3.50;99.90;;;;;;5050920;28;19932;-64
2024/01/11 09:15:05;;;;;;;;;;;3.50;99.90;;;;;;5049624;28;19925;-66
2024/01/11 09:17:32;;;;;;;;;;;3.50;99.90;;;;;;5055696;28;20071;-63
2024/01/11 09:19:59;;;;;;;;;;;3.50;99.90;;;;;;5051782;28;19925;-61
2024/01/11 09:22:27;;;;;;;;;;;3.50;99.90;;;;;;5052318;28;20043;-66
2024/01/11 09:24:54;;;;;;;;;;;3.50;99.90;;;;;;5053463;28;19925;-62
2024/01/11 09:27:22;;;;;;;;;;;3.50;99.90;;;;;;5057486;28;19951;-74
2024/01/11 09:29:49;;;;;;;;;;;3.40;99.90;;;;;;5053169;28;19925;-60
2024/01/11 09:32:21;;;;;;;;;;;3.40;99.90;;;;;;5054447;28;19936;-63
2024/01/11 09:34:48;;;;;;;;;;;3.40;99.90;;;;;;5053702;28;20019;-60
2024/01/11 09:37:15;;;;;;;;;;;3.40;99.90;;;;;;5052870;28;20347;-59
2024/01/11 09:39:42;;;;;;;;;;;3.40;99.90;;;;;;5055286;28;19928;-66
2024/01/11 09:42:09;;;;;;;;;;;3.30;99.90;;;;;;5045527;28;20394;-61
2024/01/11 09:44:40;;;;;;;;;;;3.30;99.90;;;;;;5062274;28;19932;-59
2024/01/11 09:47:08;;;;;;;;;;;3.30;99.90;;;;;;5048055;28;20425;-69
2024/01/11 09:49:36;;;;;;;;;;;3.30;99.90;;;;;;5054716;28;19928;-63
2024/01/11 09:52:04;;;;;;;;;;;3.30;99.90;;;;;;5055156;28;19952;-67
2024/01/11 09:54:31;;;;;;;;;;;3.30;99.90;;;;;;5051653;28;20359;-65
2024/01/11 09:56:58;;;;;;;;;;;3.20;99.90;;;;;;5053405;28;19929;-61
2024/01/11 09:59:25;;;;;;;;;;;3.30;99.90;;;;;;5053270;28;19967;-65
2024/01/11 10:01:52;;;;;;;;;;;3.20;99.90;;;;;;5052925;28;19971;-67
2024/01/11 10:04:19;;;;;;;;;;;3.20;99.90;;;;;;5050300;28;19983;-63
2024/01/11 10:06:48;;;;;;;;;;;3.20;99.90;;;;;;5050006;28;19937;-63
2024/01/11 10:09:16;;;;;;;;;;;3.20;99.90;;;;;;5049602;28;19928;-62
2024/01/11 10:11:44;;;;;;;;;;;3.20;99.90;;;;;;5056183;28;19930;-60
2024/01/11 10:14:12;;;;;;;;;;;3.20;99.90;;;;;;5057248;28;19932;-62
2024/01/11 10:16:41;;;;;;;;;;;3.10;99.90;;;;;;5045777;28;19960;-62
2024/01/11 10:19:08;;;;;;;;;;;3.10;99.90;;;;;;5051767;28;19960;-63
2024/01/11 10:21:37;;;;;;;;;;;3.10;99.90;;;;;;5049533;28;20438;-65
2024/01/11 10:24:05;;;;;;;;;;;3.10;99.90;;;;;;5053865;28;19929;-60
2024/01/11 10:26:32;;;;;;;;;;;3.10;99.90;;;;;;5053646;28;20159;-63
2024/01/11 10:28:59;;;;;;;;;;;3.10;99.90;;;;;;5052086;28;19935;-63
2024/01/11 10:31:29;;;;;;;;;;;3.10;99.90;;;;;;5053244;28;19957;-63
2024/01/11 10:33:57;;;;;;;;;;;3.00;99.90;;;;;;5046803;28;20404;-61
2024/01/11 10:36:24;;;;;;;;;;;3.00;99.90;;;;;;5052873;28;19932;-63
2024/01/11 10:38:52;;;;;;;;;;;2.90;99.90;;;;;;5055269;28;19932;-64
2024/01/11 10:41:20;;;;;;;;;;;2.90;99.90;;;;;;5055967;28;19932;-73
2024/01/11 10:43:48;;;;;;;;;;;2.90;99.90;;;;;;5051979;28;20023;-69
2024/01/11 10:46:16;;;;;;;;;;;2.90;99.90;;;;;;5051314;28;20011;-63
2024/01/11 10:48:44;;;;;;;;;;;2.80;99.90;;;;;;5046566;28;19925;-62
2024/01/11 10:51:14;;;;;;;;;;;2.80;99.90;;;;;;5049064;28;19929;-63
2024/01/11 10:53:45;;;;;;;;;;;2.80;99.90;;;;;;5049820;28;19928;-63
2024/01/11 10:56:13;;;;;;;;;;;2.80;99.90;;;;;;5049522;28;19924;-61
2024/01/11 10:58:40;;;;;;;;;;;2.80;99.90;;;;;;5049641;28;19960;-60
2024/01/11 11:01:08;;;;;;;;;;;2.80;99.90;;;;;;5051631;28;19932;-64
2024/01/11 11:03:35;;;;;;;;;;;2.70;99.90;;;;;;5050542;28;19979;-61
2024/01/11 11:06:03;;;;;;;;;;;2.80;99.90;;;;;;5057091;28;19929;-64
2024/01/11 11:08:31;;;;;;;;;;;2.70;99.90;;;;;;5047972;28;19936;-69
2024/01/11 11:10:58;;;;;;;;;;;2.80;99.90;;;;;;5051957;28;20051;-63
2024/01/11 11:13:26;;;;;;;;;;;2.70;99.90;;;;;;5048757;28;19928;-59
2024/01/11 11:15:53;;;;;;;;;;;2.70;99.90;;;;;;5058904;28;20387;-60
2024/01/11 11:18:20;;;;;;;;;;;2.70;99.90;;;;;;5033599;28;19933;-60
2024/01/11 11:20:48;;;;;;;;;;;2.60;99.90;;;;;;5057882;28;19934;-62
2024/01/11 11:23:17;;;;;;;;;;;2.60;99.90;;;;;;5049881;28;19928;-62
2024/01/11 11:25:47;;;;;;;;;;;2.60;99.90;;;;;;5056772;28;19936;-61
2024/01/11 11:28:18;;;;;;;;;;;2.60;99.90;;;;;;5050249;28;19928;-63
2024/01/11 11:30:47;;;;;;;;;;;2.60;99.90;;;;;;5053414;28;19925;-66
2024/01/11 11:33:18;;;;;;;;;;;2.60;99.90;;;;;;5054449;28;19986;-64
2024/01/11 11:35:51;;;;;;;;;;;2.60;99.90;;;;;;5051908;28;20007;-63
2024/01/11 11:38:22;;;;;;;;;;;2.60;99.90;;;;;;5045623;28;19928;-62
2024/01/11 11:40:51;;;;;;;;;;;2.60;99.90;;;;;;5057262;28;19928;-65
2024/01/11 11:43:18;;;;;;;;;;;2.60;99.90;;;;;;5056706;28;19960;-61
2024/01/11 11:45:46;;;;;;;;;;;2.50;99.90;;;;;;5056127;28;19925;-65
2024/01/11 11:48:31;;;;;;;;;;;2.50;99.90;;;;;;5053148;28;19924;-65
2024/01/11 11:51:02;;;;;;;;;;;2.50;99.90;;;;;;5052116;28;19935;-61
2024/01/11 11:53:36;;;;;;;;;;;2.60;99.90;;;;;;5050781;28;19935;-61
2024/01/11 11:56:03;;;;;;;;;;;2.60;99.90;;;;;;5048459;28;19928;-60
2024/01/11 11:58:30;;;;;;;;;;;2.60;99.90;;;;;;5047767;28;20391;-64
2024/01/11 12:00:58;;;;;;;;;;;2.50;99.90;;;;;;5046420;28;20647;-63
2024/01/11 12:03:28;;;;;;;;;;;2.50;99.90;;;;;;5052082;28;19956;-70
2024/01/11 12:05:55;;;;;;;;;;;2.40;99.90;;;;;;5047607;28;20014;-67
2024/01/11 12:08:22;;;;;;;;;;;2.40;99.90;;;;;;5046128;28;20014;-62
2024/01/11 12:10:49;;;;;;;;;;;2.40;99.90;;;;;;5048107;28;20274;-67
2024/01/11 12:13:16;;;;;;;;;;;2.40;99.90;;;;;;5055829;28;20023;-66
2024/01/11 12:15:43;;;;;;;;;;;2.30;99.90;;;;;;5048192;28;20694;-63
2024/01/11 12:18:10;;;;;;;;;;;2.30;99.90;;;;;;5050801;28;19935;-63
2024/01/11 12:20:37;;;;;;;;;;;2.30;99.90;;;;;;5048840;28;19978;-66
2024/01/11 12:23:04;;;;;;;;;;;2.30;99.90;;;;;;5038800;28;19929;-63
2024/01/11 12:25:32;;;;;;;;;;;2.30;99.90;;;;;;5046876;28;19937;-64
2024/01/11 12:27:59;;;;;;;;;;;2.30;99.90;;;;;;5047079;28;19925;-60
2024/01/11 12:30:26;;;;;;;;;;;2.30;99.90;;;;;;5048367;28;19933;-63
2024/01/11 12:32:54;;;;;;;;;;;2.20;99.90;;;;;;5047164;28;20013;-59
2024/01/11 12:35:21;;;;;;;;;;;2.20;99.90;;;;;;5049125;28;19968;-62
2024/01/11 12:37:55;;;;;;;;;;;2.20;99.90;;;;;;5052348;28;19940;-61
2024/01/11 12:40:22;;;;;;;;;;;2.20;99.90;;;;;;5046737;28;20712;-61
2024/01/11 12:42:49;;;;;;;;;;;2.10;99.90;;;;;;5051517;28;19932;-59
2024/01/11 12:45:16;;;;;;;;;;;2.10;99.90;;;;;;5044811;28;19925;-67
2024/01/11 12:47:44;;;;;;;;;;;2.10;99.90;;;;;;5048176;28;19932;-63
2024/01/11 12:50:12;;;;;;;;;;;2.10;99.90;;;;;;5044530;28;19933;-61
2024/01/11 12:52:39;;;;;;;;;;;2.00;99.90;;;;;;5052482;28;19995;-66
2024/01/11 12:55:18;;;;;;;;;;;1.90;99.90;;;;;;5045261;28;19925;-60
2024/01/11 12:57:45;;;;;;;;;;;1.90;99.90;;;;;;5047829;28;19929;-61
2024/01/11 13:00:16;;;;;;;;;;;1.90;99.90;;;;;;5047053;28;19932;-64
2024/01/11 13:02:46;;;;;;;;;;;1.90;99.90;;;;;;5044427;28;20031;-59
2024/01/11 13:05:12;;;;;;;;;;;1.90;99.90;;;;;;5045045;28;19928;-60
2024/01/11 13:07:39;;;;;;;;;;;1.90;99.90;;;;;;5047790;28;19936;-69
2024/01/11 13:10:06;;;;;;;;;;;1.80;99.90;;;;;;5045192;28;20424;-72
2024/01/11 13:12:33;;;;;;;;;;;1.90;99.90;;;;;;5047958;28;19955;-62
2024/01/11 13:15:00;;;;;;;;;;;1.80;99.90;;;;;;5050249;28;20380;-60
2024/01/11 13:17:27;;;;;;;;;;;1.80;99.90;;;;;;5045834;28;20489;-66
2024/01/11 13:19:54;;;;;;;;;;;1.70;99.90;;;;;;5044909;28;19925;-62
2024/01/11 13:22:21;;;;;;;;;;;1.70;99.90;;;;;;5049233;28;20051;-60
2024/01/11 13:24:48;;;;;;;;;;;1.70;99.90;;;;;;5047465;28;19929;-62
2024/01/11 13:27:16;;;;;;;;;;;1.70;99.90;;;;;;5049600;28;19970;-65
2024/01/11 13:29:43;;;;;;;;;;;1.70;99.90;;;;;;5047368;28;19964;-60
2024/01/11 13:32:10;;;;;;;;;;;1.60;99.90;;;;;;5044409;28;19925;-59
2024/01/11 13:34:38;;;;;;;;;;;1.60;99.90;;;;;;5044847;28;19936;-67
2024/01/11 13:37:05;;;;;;;;;;;1.60;99.90;;;;;;5042007;28;19932;-60
2024/01/11 13:39:32;;;;;;;;;;;1.50;99.90;;;;;;5047552;28;19982;-60
2024/01/11 13:41:59;;;;;;;;;;;1.50;99.90;;;;;;5046769;28;20031;-66
2024/01/11 13:44:26;;;;;;;;;;;1.50;99.90;;;;;;5051203;28;19956;-67
2024/01/11 13:46:52;;;;;;;;;;;1.50;99.90;;;;;;5044838;28;19932;-66
2024/01/11 13:49:22;;;;;;;;;;;1.50;99.90;;;;;;5049488;28;20574;-64
2024/01/11 13:51:49;;;;;;;;;;;1.50;99.90;;;;;;5048975;28;19949;-63
2024/01/11 13:54:27;;;;;;;;;;;1.50;99.90;;;;;;5046228;28;19929;-60
2024/01/11 13:56:54;;;;;;;;;;;1.40;99.90;;;;;;5047735;28;20263;-62
2024/01/11 13:59:21;;;;;;;;;;;1.40;99.90;;;;;;5049582;28;19933;-62
2024/01/11 14:01:48;;;;;;;;;;;1.30;99.90;;;;;;5051310;28;19935;-62
2024/01/11 14:04:15;;;;;;;;;;;1.30;99.90;;;;;;5050804;28;19983;-67
2024/01/11 14:06:42;;;;;;;;;;;1.30;99.90;;;;;;5049016;28;19924;-63
2024/01/11 14:09:09;;;;;;;;;;;1.30;99.90;;;;;;5048196;28;20387;-66
2024/01/11 14:11:36;;;;;;;;;;;1.30;99.90;;;;;;5046414;28;19925;-62
2024/01/11 14:14:03;;;;;;;;;;;1.30;99.90;;;;;;5051278;28;19928;-61
2024/01/11 14:16:30;;;;;;;;;;;1.30;99.90;;;;;;5052720;28;19947;-61
2024/01/11 14:18:57;;;;;;;;;;;1.30;99.90;;;;;;5051265;28;19925;-60
2024/01/11 14:21:24;;;;;;;;;;;1.20;99.90;;;;;;5052720;28;19925;-63
2024/01/11 14:23:51;;;;;;;;;;;1.20;99.90;;;;;;5055982;28;19924;-61
2024/01/11 14:26:18;;;;;;;;;;;1.20;99.90;;;;;;5052061;28;19929;-64
2024/01/11 14:28:46;;;;;;;;;;;1.20;99.90;;;;;;5056767;28;20606;-61
2024/01/11 14:31:13;;;;;;;;;;;1.20;99.90;;;;;;5056520;28;19928;-61
2024/01/11 14:33:40;;;;;;;;;;;1.20;99.90;;;;;;5057547;28;20760;-65